Time,TemperatureF,DewpointF,PressureIn,WindDirection,WindDirectionDegrees,WindSpeedMPH,WindSpeedGustMPH,Humidity,HourlyPrecipIn,Conditions,Clouds,dailyrainin,SoftwareType,DateUTC
2013-02-09 08:37:00,22.2,10.0,22.19,ESE,122,0.0,21.0,59,0.00,,,0.00,Wunderground v.1.15,2013-02-09 15:37:00,
2013-02-09 08:39:00,22.5,9.5,22.19,SE,134,1.0,21.0,57,0.00,,,0.00,Wunderground v.1.15,2013-02-09 15:39:00,
2013-02-09 08:45:00,23.5,9.3,22.19,SSE,150,2.0,21.0,54,0.00,,,0.00,Wunderground v.1.15,2013-02-09 15:45:00,
2013-02-09 08:49:00,23.9,10.1,22.18,South,188,2.0,21.0,55,0.00,,,0.00,Wunderground v.1.15,2013-02-09 15:49:00,
2013-02-09 08:51:00,24.2,9.9,22.18,SE,138,2.0,21.0,54,0.00,,,0.00,Wunderground v.1.15,2013-02-09 15:51:00,
2013-02-09 08:55:00,24.4,10.1,22.18,SSE,162,1.0,21.0,54,0.00,,,0.00,Wunderground v.1.15,2013-02-09 15:55:00,
2013-02-09 08:57:00,24.3,10.0,22.18,South,173,1.0,21.0,54,0.00,,,0.00,Wunderground v.1.15,2013-02-09 15:57:00,
2013-02-09 08:59:00,24.2,9.9,22.18,South,184,1.0,21.0,54,0.00,,,0.00,Wunderground v.1.15,2013-02-09 15:59:00,
2013-02-09 09:03:00,24.3,10.4,22.18,East,94,1.0,1.0,55,0.00,,,0.00,Wunderground v.1.15,2013-02-09 16:03:00,
2013-02-09 09:07:00,24.5,10.6,22.18,SSE,164,1.0,21.0,55,0.00,,,0.00,Wunderground v.1.15,2013-02-09 16:07:00,
2013-02-09 09:09:00,24.6,10.7,22.18,SE,146,1.0,21.0,55,0.00,,,0.00,Wunderground v.1.15,2013-02-09 16:09:00,
2013-02-09 09:15:00,25.0,10.7,22.17,SE,129,1.0,21.0,54,0.00,,,0.00,Wunderground v.1.15,2013-02-09 16:15:00,
2013-02-09 09:17:00,25.1,10.8,22.17,SE,134,1.0,21.0,54,0.00,,,0.00,Wunderground v.1.15,2013-02-09 16:17:00,
2013-02-09 09:19:00,25.3,11.0,22.17,SE,134,1.0,21.0,54,0.00,,,0.00,Wunderground v.1.15,2013-02-09 16:19:00,
2013-02-09 09:21:00,25.5,11.1,22.17,ESE,114,1.0,21.0,54,0.00,,,0.00,Wunderground v.1.15,2013-02-09 16:21:00,
2013-02-09 09:25:00,26.1,11.7,22.17,East,101,0.0,21.0,54,0.00,,,0.00,Wunderground v.1.15,2013-02-09 16:25:00,
2013-02-09 09:27:00,26.3,11.5,22.17,East,84,0.0,21.0,53,0.00,,,0.00,Wunderground v.1.15,2013-02-09 16:27:00,
2013-02-09 09:31:00,26.7,11.4,22.17,SW,225,0.0,21.0,52,0.00,,,0.00,Wunderground v.1.15,2013-02-09 16:31:00,
2013-02-09 09:33:00,26.8,11.9,22.17,WSW,249,0.0,21.0,53,0.00,,,0.00,Wunderground v.1.15,2013-02-09 16:33:00,
2013-02-09 09:35:00,27.1,12.2,22.17,ENE,71,1.0,21.0,53,0.00,,,0.00,Wunderground v.1.15,2013-02-09 16:35:00,
2013-02-09 09:39:00,27.6,12.7,22.17,ESE,113,1.0,21.0,53,0.00,,,0.00,Wunderground v.1.15,2013-02-09 16:39:00,
2013-02-09 09:45:00,28.8,13.4,22.16,SSW,212,2.0,3.0,52,0.00,,,0.00,Wunderground v.1.15,2013-02-09 16:45:00,
2013-02-09 09:47:00,29.4,14.4,22.16,ENE,78,2.0,21.0,53,0.00,,,0.00,Wunderground v.1.15,2013-02-09 16:47:00,
2013-02-09 09:51:00,30.6,13.7,22.16,ESE,117,2.0,21.0,49,0.00,,,0.00,Wunderground v.1.15,2013-02-09 16:51:00,
2013-02-09 09:55:00,30.9,13.5,22.16,SSW,208,2.0,21.0,48,0.00,,,0.00,Wunderground v.1.15,2013-02-09 16:55:00,
2013-02-09 09:59:00,30.7,13.3,22.15,ESE,123,3.0,21.0,48,0.00,,,0.00,Wunderground v.1.15,2013-02-09 16:59:00,
2013-02-09 10:01:00,30.5,13.1,22.15,ENE,57,3.0,21.0,48,0.00,,,0.00,Wunderground v.1.15,2013-02-09 17:01:00,
2013-02-09 10:03:00,30.2,13.3,22.15,NE,53,3.0,3.0,49,0.00,,,0.00,Wunderground v.1.15,2013-02-09 17:03:00,
2013-02-09 10:09:00,30.3,13.4,22.15,ESE,102,3.0,21.0,49,0.00,,,0.00,Wunderground v.1.15,2013-02-09 17:09:00,
2013-02-09 10:11:00,30.4,13.5,22.15,East,85,3.0,21.0,49,0.00,,,0.00,Wunderground v.1.15,2013-02-09 17:11:00,
2013-02-09 10:15:00,30.9,13.5,22.15,NNW,342,2.0,21.0,48,0.00,,,0.00,Wunderground v.1.15,2013-02-09 17:15:00,
2013-02-09 10:17:00,31.3,14.3,22.14,NNE,27,2.0,21.0,49,0.00,,,0.00,Wunderground v.1.15,2013-02-09 17:17:00,
2013-02-09 10:21:00,31.3,13.4,22.14,NE,56,2.0,21.0,47,0.00,,,0.00,Wunderground v.1.15,2013-02-09 17:21:00,
2013-02-09 10:27:00,31.4,13.5,22.14,SSW,195,3.0,21.0,47,0.00,,,0.00,Wunderground v.1.15,2013-02-09 17:27:00,
2013-02-09 10:29:00,31.8,13.8,22.14,ENE,64,2.0,21.0,47,0.00,,,0.00,Wunderground v.1.15,2013-02-09 17:29:00,
2013-02-09 10:33:00,31.6,13.7,22.14,ENE,58,3.0,3.0,47,0.00,,,0.00,Wunderground v.1.15,2013-02-09 17:33:00,
2013-02-09 10:35:00,31.1,13.2,22.14,SW,236,3.0,21.0,47,0.00,,,0.00,Wunderground v.1.15,2013-02-09 17:35:00,
2013-02-09 10:39:00,31.2,13.8,22.14,NE,56,4.0,21.0,48,0.00,,,0.00,Wunderground v.1.15,2013-02-09 17:39:00,
2013-02-09 10:41:00,31.4,13.5,22.13,South,187,3.0,21.0,47,0.00,,,0.00,Wunderground v.1.15,2013-02-09 17:41:00,
2013-02-09 10:43:00,31.9,14.4,22.13,NE,49,3.0,3.0,48,0.00,,,0.00,Wunderground v.1.15,2013-02-09 17:43:00,
2013-02-09 10:47:00,32.2,13.7,22.13,ENE,69,2.0,21.0,46,0.00,,,0.00,Wunderground v.1.15,2013-02-09 17:47:00,
2013-02-09 10:49:00,32.0,13.5,22.13,SE,146,2.0,21.0,46,0.00,,,0.00,Wunderground v.1.15,2013-02-09 17:49:00,
2013-02-09 10:51:00,32.0,13.5,22.14,SSE,148,2.0,21.0,46,0.00,,,0.00,Wunderground v.1.15,2013-02-09 17:51:00,
2013-02-09 10:53:00,31.7,13.3,22.13,NW,312,2.0,21.0,46,0.00,,,0.00,Wunderground v.1.15,2013-02-09 17:53:00,
2013-02-09 10:59:00,31.0,13.6,22.13,NW,314,3.0,21.0,48,0.00,,,0.00,Wunderground v.1.15,2013-02-09 17:59:00,
2013-02-09 11:03:00,30.4,13.0,22.13,NNE,15,3.0,3.0,48,0.00,,,0.00,Wunderground v.1.15,2013-02-09 18:03:00,
2013-02-09 11:05:00,30.2,13.3,22.13,NE,53,2.0,21.0,49,0.00,,,0.00,Wunderground v.1.15,2013-02-09 18:05:00,
2013-02-09 11:09:00,29.7,13.3,22.13,ENE,60,2.0,21.0,50,0.00,,,0.00,Wunderground v.1.15,2013-02-09 18:09:00,
2013-02-09 11:11:00,29.5,13.6,22.13,NNW,346,2.0,21.0,51,0.00,,,0.00,Wunderground v.1.15,2013-02-09 18:11:00,
2013-02-09 11:15:00,29.3,15.5,22.13,NNE,33,2.0,21.0,56,0.00,,,0.00,Wunderground v.1.15,2013-02-09 18:15:00,
2013-02-09 11:19:00,28.9,16.0,22.13,NW,323,1.0,21.0,58,0.00,,,0.00,Wunderground v.1.15,2013-02-09 18:19:00,
2013-02-09 11:21:00,28.7,17.3,22.14,SW,217,1.0,21.0,62,0.00,,,0.00,Wunderground v.1.15,2013-02-09 18:21:00,
2013-02-09 11:25:00,28.0,17.7,22.13,WSW,246,1.0,21.0,65,0.00,,,0.00,Wunderground v.1.15,2013-02-09 18:25:00,
2013-02-09 11:27:00,27.5,18.3,22.13,SW,217,1.0,21.0,68,0.00,,,0.00,Wunderground v.1.15,2013-02-09 18:27:00,
2013-02-09 11:29:00,27.1,18.6,22.14,West,259,1.0,21.0,70,0.00,,,0.00,Wunderground v.1.15,2013-02-09 18:29:00,
2013-02-09 11:33:00,26.6,20.1,22.14,WSW,246,1.0,21.0,76,0.00,,,0.00,Wunderground v.1.15,2013-02-09 18:33:00,
2013-02-09 11:37:00,26.0,19.8,22.13,SW,228,1.0,21.0,77,0.00,,,0.00,Wunderground v.1.15,2013-02-09 18:37:00,
2013-02-09 11:41:00,25.8,20.2,22.13,NW,309,1.0,21.0,79,0.00,,,0.00,Wunderground v.1.15,2013-02-09 18:41:00,
2013-02-09 11:45:00,26.0,20.1,22.13,South,181,1.0,21.0,78,0.00,,,0.00,Wunderground v.1.15,2013-02-09 18:45:00,
2013-02-09 11:47:00,26.2,20.6,22.13,SSE,153,0.0,21.0,79,0.00,,,0.00,Wunderground v.1.15,2013-02-09 18:47:00,
2013-02-09 11:53:00,26.6,20.1,22.13,SE,124,1.0,1.0,76,0.00,,,0.00,Wunderground v.1.15,2013-02-09 18:53:00,
2013-02-09 11:55:00,26.7,19.8,22.13,SE,134,1.0,21.0,75,0.00,,,0.00,Wunderground v.1.15,2013-02-09 18:55:00,
2013-02-09 11:57:00,26.7,19.8,22.13,SE,129,1.0,21.0,75,0.00,,,0.00,Wunderground v.1.15,2013-02-09 18:57:00,
2013-02-09 12:03:00,27.3,21.3,22.12,North,4,1.0,21.0,78,0.00,,,0.00,Wunderground v.1.15,2013-02-09 19:03:00,
2013-02-09 12:05:00,27.7,22.0,22.12,NNW,346,0.0,21.0,79,0.00,,,0.00,Wunderground v.1.15,2013-02-09 19:05:00,
2013-02-09 12:07:00,27.9,21.9,22.12,WNW,284,0.0,21.0,78,0.00,,,0.00,Wunderground v.1.15,2013-02-09 19:07:00,
2013-02-09 12:09:00,28.1,22.1,22.12,WSW,242,0.0,21.0,78,0.00,,,0.00,Wunderground v.1.15,2013-02-09 19:09:00,
2013-02-09 12:15:00,28.2,21.9,22.11,West,274,0.0,21.0,77,0.00,,,0.00,Wunderground v.1.15,2013-02-09 19:15:00,
2013-02-09 12:17:00,28.2,21.9,22.12,WSW,250,1.0,21.0,77,0.00,,,0.00,Wunderground v.1.15,2013-02-09 19:17:00,
2013-02-09 12:19:00,28.1,21.8,22.11,WSW,257,1.0,21.0,77,0.00,,,0.00,Wunderground v.1.15,2013-02-09 19:19:00,
2013-02-09 12:21:00,28.3,22.3,22.11,WSW,257,0.0,21.0,78,0.00,,,0.00,Wunderground v.1.15,2013-02-09 19:21:00,
2013-02-09 12:25:00,28.2,21.6,22.11,NNE,22,1.0,21.0,76,0.00,,,0.00,Wunderground v.1.15,2013-02-09 19:25:00,
2013-02-09 12:27:00,28.3,22.3,22.11,NW,320,1.0,21.0,78,0.00,,,0.00,Wunderground v.1.15,2013-02-09 19:27:00,
2013-02-09 12:29:00,28.2,21.9,22.11,WNW,285,1.0,21.0,77,0.00,,,0.00,Wunderground v.1.15,2013-02-09 19:29:00,
2013-02-09 12:31:00,28.2,22.2,22.11,NNE,25,1.0,21.0,78,0.00,,,0.00,Wunderground v.1.15,2013-02-09 19:31:00,
2013-02-09 12:37:00,28.2,21.6,22.10,WSW,249,1.0,21.0,76,0.00,,,0.00,Wunderground v.1.15,2013-02-09 19:37:00,
2013-02-09 12:39:00,28.2,21.3,22.10,NW,319,1.0,21.0,75,0.00,,,0.00,Wunderground v.1.15,2013-02-09 19:39:00,
2013-02-09 12:41:00,28.2,19.3,22.10,SW,214,2.0,21.0,69,0.00,,,0.00,Wunderground v.1.15,2013-02-09 19:41:00,
2013-02-09 12:43:00,28.2,19.0,22.10,NNW,347,2.0,2.0,68,0.00,,,0.00,Wunderground v.1.15,2013-02-09 19:43:00,
2013-02-09 12:49:00,27.9,16.9,22.10,WSW,240,3.0,21.0,63,0.00,,,0.00,Wunderground v.1.15,2013-02-09 19:49:00,
2013-02-09 12:53:00,27.8,17.6,22.10,SSW,212,4.0,4.0,65,0.00,,,0.00,Wunderground v.1.15,2013-02-09 19:53:00,
2013-02-09 12:55:00,27.7,16.4,22.09,SSW,193,4.0,21.0,62,0.00,,,0.00,Wunderground v.1.15,2013-02-09 19:55:00,
2013-02-09 12:57:00,27.7,16.4,22.09,SW,225,4.0,21.0,62,0.00,,,0.00,Wunderground v.1.15,2013-02-09 19:57:00,
2013-02-09 12:59:00,27.7,16.0,22.09,WSW,253,4.0,21.0,61,0.00,,,0.00,Wunderground v.1.15,2013-02-09 19:59:00,
2013-02-09 13:05:00,27.7,15.6,22.09,SW,235,4.0,6.0,60,0.00,,,0.00,Wunderground v.1.15,2013-02-09 20:05:00,
2013-02-09 13:07:00,27.7,15.2,22.09,SSE,165,5.0,13.0,59,0.00,,,0.00,Wunderground v.1.15,2013-02-09 20:07:00,
2013-02-09 13:13:00,27.8,14.1,22.08,WSW,240,5.0,5.0,56,0.00,,,0.00,Wunderground v.1.15,2013-02-09 20:13:00,
2013-02-09 13:15:00,27.8,13.7,22.08,SSW,204,5.0,6.0,55,0.00,,,0.00,Wunderground v.1.15,2013-02-09 20:15:00,
2013-02-09 13:19:00,27.8,14.1,22.08,West,262,5.0,21.0,56,0.00,,,0.00,Wunderground v.1.15,2013-02-09 20:19:00,
2013-02-09 13:21:00,27.9,13.8,22.08,WSW,246,5.0,21.0,55,0.00,,,0.00,Wunderground v.1.15,2013-02-09 20:21:00,
2013-02-09 13:23:00,28.0,13.5,22.08,SW,225,5.0,5.0,54,0.00,,,0.00,Wunderground v.1.15,2013-02-09 20:23:00,
2013-02-09 13:25:00,28.0,13.5,22.08,West,264,4.0,21.0,54,0.00,,,0.00,Wunderground v.1.15,2013-02-09 20:25:00,
2013-02-09 13:31:00,28.5,13.5,22.08,SW,226,3.0,21.0,53,0.00,,,0.00,Wunderground v.1.15,2013-02-09 20:31:00,
2013-02-09 13:33:00,28.6,13.2,22.08,SSW,193,3.0,3.0,52,0.00,,,0.00,Wunderground v.1.15,2013-02-09 20:33:00,
2013-02-09 13:37:00,29.0,14.0,22.08,West,262,3.0,21.0,53,0.00,,,0.00,Wunderground v.1.15,2013-02-09 20:37:00,
2013-02-09 13:39:00,29.3,13.4,22.07,WSW,250,4.0,21.0,51,0.00,,,0.00,Wunderground v.1.15,2013-02-09 20:39:00,
2013-02-09 13:41:00,29.6,13.2,22.07,WSW,240,4.0,21.0,50,0.00,,,0.00,Wunderground v.1.15,2013-02-09 20:41:00,
2013-02-09 13:47:00,30.3,12.9,22.07,West,260,4.0,21.0,48,0.00,,,0.00,Wunderground v.1.15,2013-02-09 20:47:00,
2013-02-09 13:49:00,30.4,11.6,22.07,SW,222,5.0,21.0,45,0.00,,,0.00,Wunderground v.1.15,2013-02-09 20:49:00,
2013-02-09 13:51:00,30.6,12.7,22.07,WSW,253,5.0,21.0,47,0.00,,,0.00,Wunderground v.1.15,2013-02-09 20:51:00,
2013-02-09 13:57:00,30.4,11.1,22.07,SW,214,7.0,21.0,44,0.00,,,0.00,Wunderground v.1.15,2013-02-09 20:57:00,
2013-02-09 13:59:00,30.4,11.1,22.07,SW,217,7.0,21.0,44,0.00,,,0.00,Wunderground v.1.15,2013-02-09 20:59:00,
2013-02-09 14:05:00,30.4,12.1,22.07,South,186,7.0,21.0,46,0.00,,,0.00,Wunderground v.1.15,2013-02-09 21:05:00,
2013-02-09 14:07:00,30.4,11.1,22.07,WSW,255,7.0,21.0,44,0.00,,,0.00,Wunderground v.1.15,2013-02-09 21:07:00,
2013-02-09 14:11:00,30.4,11.1,22.07,SW,223,6.0,21.0,44,0.00,,,0.00,Wunderground v.1.15,2013-02-09 21:11:00,
2013-02-09 14:17:00,30.4,11.6,22.07,SW,229,6.0,21.0,45,0.00,,,0.00,Wunderground v.1.15,2013-02-09 21:17:00,
2013-02-09 14:21:00,30.5,11.7,22.07,SSW,201,5.0,21.0,45,0.00,,,0.00,Wunderground v.1.15,2013-02-09 21:21:00,
2013-02-09 14:23:00,30.5,11.7,22.07,WSW,249,4.0,21.0,45,0.00,,,0.00,Wunderground v.1.15,2013-02-09 21:23:00,
2013-02-09 14:25:00,30.5,11.7,22.07,WSW,243,4.0,21.0,45,0.00,,,0.00,Wunderground v.1.15,2013-02-09 21:25:00,
2013-02-09 14:29:00,30.6,14.1,22.07,North,4,3.0,21.0,50,0.00,,,0.00,Wunderground v.1.15,2013-02-09 21:29:00,
2013-02-09 14:31:00,30.3,17.7,22.07,NW,307,3.0,21.0,59,0.00,,,0.00,Wunderground v.1.15,2013-02-09 21:31:00,
2013-02-09 14:37:00,29.4,19.4,22.07,North,353,4.0,21.0,66,0.00,,,0.00,Wunderground v.1.15,2013-02-09 21:37:00,
2013-02-09 14:39:00,29.2,19.2,22.07,NW,316,4.0,21.0,66,0.00,,,0.00,Wunderground v.1.15,2013-02-09 21:39:00,
2013-02-09 14:45:00,28.9,19.0,22.07,North,4,4.0,21.0,66,0.00,,,0.00,Wunderground v.1.15,2013-02-09 21:45:00,
2013-02-09 14:47:00,28.9,19.0,22.07,North,358,3.0,21.0,66,0.00,,,0.00,Wunderground v.1.15,2013-02-09 21:47:00,
2013-02-09 14:49:00,28.9,18.6,22.07,North,357,4.0,21.0,65,0.00,,,0.00,Wunderground v.1.15,2013-02-09 21:49:00,
2013-02-09 14:55:00,28.5,17.9,22.07,NW,309,5.0,21.0,64,0.00,,,0.00,Wunderground v.1.15,2013-02-09 21:55:00,
2013-02-09 14:59:00,28.2,17.9,22.07,NNW,336,5.0,21.0,65,0.00,,,0.00,Wunderground v.1.15,2013-02-09 21:59:00,
2013-02-09 15:01:00,28.1,18.2,22.07,North,354,5.0,21.0,66,0.00,,,0.00,Wunderground v.1.15,2013-02-09 22:01:00,
2013-02-09 15:03:00,28.0,18.1,22.07,NNW,342,5.0,5.0,66,0.00,,,0.00,Wunderground v.1.15,2013-02-09 22:03:00,
2013-02-09 15:05:00,28.0,18.1,22.07,North,357,4.0,21.0,66,0.00,,,0.00,Wunderground v.1.15,2013-02-09 22:05:00,
2013-02-09 15:09:00,28.0,18.1,22.07,NNE,18,4.0,21.0,66,0.00,,,0.00,Wunderground v.1.15,2013-02-09 22:09:00,
2013-02-09 15:11:00,28.1,18.2,22.07,NW,323,3.0,21.0,66,0.00,,,0.00,Wunderground v.1.15,2013-02-09 22:11:00,
2013-02-09 15:17:00,28.2,18.3,22.07,ENE,74,2.0,21.0,66,0.00,,,0.00,Wunderground v.1.15,2013-02-09 22:17:00,
2013-02-09 15:23:00,27.9,18.4,22.07,North,359,2.0,2.0,67,0.00,,,0.00,Wunderground v.1.15,2013-02-09 22:23:00,
2013-02-09 15:25:00,28.0,18.5,22.07,SE,136,2.0,21.0,67,0.00,,,0.00,Wunderground v.1.15,2013-02-09 22:25:00,
2013-02-09 15:27:00,28.0,18.1,22.07,SSW,204,1.0,21.0,66,0.00,,,0.00,Wunderground v.1.15,2013-02-09 22:27:00,
2013-02-09 15:29:00,27.9,18.7,22.07,SSW,208,1.0,21.0,68,0.00,,,0.00,Wunderground v.1.15,2013-02-09 22:29:00,
2013-02-09 15:31:00,27.9,18.7,22.08,East,89,1.0,21.0,68,0.00,,,0.00,Wunderground v.1.15,2013-02-09 22:31:00,
2013-02-09 15:33:00,27.8,18.3,22.07,SW,224,1.0,1.0,67,0.00,,,0.00,Wunderground v.1.15,2013-02-09 22:33:00,
2013-02-09 15:37:00,27.8,18.6,22.07,SE,143,1.0,21.0,68,0.00,,,0.00,Wunderground v.1.15,2013-02-09 22:37:00,
2013-02-09 15:39:00,27.7,18.5,22.07,North,358,1.0,21.0,68,0.00,,,0.00,Wunderground v.1.15,2013-02-09 22:39:00,
2013-02-09 15:43:00,27.7,18.8,22.07,NW,317,1.0,21.0,69,0.00,,,0.00,Wunderground v.1.15,2013-02-09 22:43:00,
2013-02-09 15:47:00,27.4,18.9,22.08,NNW,339,2.0,21.0,70,0.00,,,0.00,Wunderground v.1.15,2013-02-09 22:47:00,
2013-02-09 15:49:00,27.3,18.8,22.08,NNW,335,3.0,21.0,70,0.00,,,0.00,Wunderground v.1.15,2013-02-09 22:49:00,
2013-02-09 15:55:00,27.1,18.6,22.08,NNW,327,3.0,21.0,70,0.00,,,0.00,Wunderground v.1.15,2013-02-09 22:55:00,
2013-02-09 16:01:00,27.0,18.8,22.08,NW,322,3.0,21.0,71,0.00,,,0.00,Wunderground v.1.15,2013-02-09 23:01:00,
2013-02-09 16:03:00,27.0,18.8,22.08,ENE,64,2.0,21.0,71,0.00,,,0.00,Wunderground v.1.15,2013-02-09 23:03:00,
2013-02-09 16:07:00,26.9,18.7,22.08,ENE,69,2.0,21.0,71,0.00,,,0.00,Wunderground v.1.15,2013-02-09 23:07:00,
2013-02-09 16:13:00,26.7,18.6,22.08,NE,56,2.0,2.0,71,0.00,,,0.00,Wunderground v.1.15,2013-02-09 23:13:00,
2013-02-09 16:15:00,26.7,18.6,22.08,NE,56,1.0,21.0,71,0.00,,,0.00,Wunderground v.1.15,2013-02-09 23:15:00,
2013-02-09 16:19:00,26.6,18.5,22.08,NE,54,1.0,21.0,71,0.00,,,0.00,Wunderground v.1.15,2013-02-09 23:19:00,
2013-02-09 16:21:00,26.6,18.5,22.08,ENE,77,2.0,21.0,71,0.00,,,0.00,Wunderground v.1.15,2013-02-09 23:21:00,
2013-02-09 16:27:00,26.6,18.5,22.08,ENE,71,2.0,21.0,71,0.00,,,0.00,Wunderground v.1.15,2013-02-09 23:27:00,
2013-02-09 16:31:00,26.5,18.7,22.07,NW,323,2.0,21.0,72,0.00,,,0.00,Wunderground v.1.15,2013-02-09 23:31:00,
2013-02-09 16:33:00,26.5,18.7,22.07,NNE,15,2.0,21.0,72,0.00,,,0.00,Wunderground v.1.15,2013-02-09 23:33:00,
2013-02-09 16:37:00,26.4,19.5,22.07,NE,37,2.0,21.0,75,0.00,,,0.00,Wunderground v.1.15,2013-02-09 23:37:00,
2013-02-09 16:39:00,26.3,19.8,22.07,NNE,13,2.0,21.0,76,0.00,,,0.00,Wunderground v.1.15,2013-02-09 23:39:00,
2013-02-09 16:41:00,26.2,20.0,22.07,NNE,13,2.0,21.0,77,0.00,,,0.00,Wunderground v.1.15,2013-02-09 23:41:00,
2013-02-09 16:43:00,26.2,20.0,22.07,NW,323,2.0,2.0,77,0.00,,,0.00,Wunderground v.1.15,2013-02-09 23:43:00,
2013-02-09 16:45:00,26.0,20.1,22.07,NNW,347,2.0,4.0,78,0.00,,,0.00,Wunderground v.1.15,2013-02-09 23:45:00,
2013-02-09 16:51:00,25.7,20.1,22.08,NNW,341,2.0,21.0,79,0.00,,,0.00,Wunderground v.1.15,2013-02-09 23:51:00,
2013-02-09 16:53:00,25.7,20.1,22.07,NW,319,2.0,21.0,79,0.00,,,0.00,Wunderground v.1.15,2013-02-09 23:53:00,
2013-02-09 16:59:00,25.4,20.1,22.08,NNW,337,2.0,21.0,80,0.00,,,0.00,Wunderground v.1.15,2013-02-09 23:59:00,
2013-02-09 17:03:00,25.2,19.9,22.07,NNW,344,3.0,21.0,80,0.00,,,0.00,Wunderground v.1.15,2013-02-10 00:03:00,
2013-02-09 17:07:00,25.0,20.0,22.08,NNW,333,3.0,21.0,81,0.00,,,0.00,Wunderground v.1.15,2013-02-10 00:07:00,
2013-02-09 17:11:00,24.7,20.0,22.07,NNW,337,3.0,21.0,82,0.00,,,0.00,Wunderground v.1.15,2013-02-10 00:11:00,
2013-02-09 17:13:00,24.6,19.9,22.07,NNE,25,3.0,21.0,82,0.00,,,0.00,Wunderground v.1.15,2013-02-10 00:13:00,
2013-02-09 17:17:00,24.4,19.7,22.07,NNW,327,3.0,21.0,82,0.00,,,0.00,Wunderground v.1.15,2013-02-10 00:17:00,
2013-02-09 17:22:00,24.2,19.5,22.07,NNW,339,3.0,21.0,82,0.00,,,0.00,Wunderground v.1.15,2013-02-10 00:22:00,
2013-02-09 17:23:00,24.2,19.5,22.07,NNW,335,2.0,21.0,82,0.00,,,0.00,Wunderground v.1.15,2013-02-10 00:23:00,
2013-02-09 17:25:00,24.1,19.4,22.07,NW,320,2.0,21.0,82,0.00,,,0.00,Wunderground v.1.15,2013-02-10 00:25:00,
2013-02-09 17:29:00,23.9,19.5,22.07,North,354,2.0,21.0,83,0.00,,,0.00,Wunderground v.1.15,2013-02-10 00:29:00,
2013-02-09 17:31:00,23.9,19.5,22.07,NNW,347,2.0,21.0,83,0.00,,,0.00,Wunderground v.1.15,2013-02-10 00:31:00,
2013-02-09 17:35:00,23.7,19.3,22.07,NNE,25,3.0,21.0,83,0.00,,,0.00,Wunderground v.1.15,2013-02-10 00:35:00,
2013-02-09 17:37:00,23.6,19.2,22.07,NNW,333,3.0,21.0,83,0.00,,,0.00,Wunderground v.1.15,2013-02-10 00:37:00,
2013-02-09 17:39:00,23.6,19.2,22.07,NW,313,3.0,21.0,83,0.00,,,0.00,Wunderground v.1.15,2013-02-10 00:39:00,
2013-02-09 17:45:00,23.5,19.4,22.07,NE,43,3.0,21.0,84,0.00,,,0.00,Wunderground v.1.15,2013-02-10 00:45:00,
2013-02-09 17:51:00,23.4,19.3,22.07,NE,39,2.0,21.0,84,0.00,,,0.00,Wunderground v.1.15,2013-02-10 00:51:00,
2013-02-09 17:53:00,23.4,19.0,22.07,NNW,336,1.0,21.0,83,0.00,,,0.00,Wunderground v.1.15,2013-02-10 00:53:00,
2013-02-09 17:57:00,23.3,18.9,22.07,NE,43,1.0,21.0,83,0.00,,,0.00,Wunderground v.1.15,2013-02-10 00:57:00,
2013-02-09 18:01:00,23.2,18.5,22.07,NW,316,1.0,21.0,82,0.00,,,0.00,Wunderground v.1.15,2013-02-10 01:01:00,
2013-02-09 18:03:00,23.2,18.5,22.07,NW,313,1.0,1.0,82,0.00,,,0.00,Wunderground v.1.15,2013-02-10 01:03:00,
2013-02-09 18:09:00,23.0,18.3,22.06,East,98,1.0,21.0,82,0.00,,,0.00,Wunderground v.1.15,2013-02-10 01:09:00,
2013-02-09 18:11:00,22.9,18.2,22.07,East,98,1.0,21.0,82,0.00,,,0.00,Wunderground v.1.15,2013-02-10 01:11:00,
2013-02-09 18:15:00,22.7,18.0,22.07,ESE,108,1.0,21.0,82,0.00,,,0.00,Wunderground v.1.15,2013-02-10 01:15:00,
2013-02-09 18:17:00,22.6,17.9,22.07,ESE,107,1.0,21.0,82,0.00,,,0.00,Wunderground v.1.15,2013-02-10 01:17:00,
2013-02-09 18:19:00,22.5,17.8,22.07,East,82,1.0,21.0,82,0.00,,,0.00,Wunderground v.1.15,2013-02-10 01:19:00,
2013-02-09 18:25:00,22.3,17.9,22.07,NNW,327,0.0,21.0,83,0.00,,,0.00,Wunderground v.1.15,2013-02-10 01:25:00,
2013-02-09 18:29:00,22.2,17.8,22.07,NNW,333,0.0,21.0,83,0.00,,,0.00,Wunderground v.1.15,2013-02-10 01:29:00,
2013-02-09 18:31:00,22.2,17.8,22.07,NNW,333,0.0,21.0,83,0.00,,,0.00,Wunderground v.1.15,2013-02-10 01:31:00,
2013-02-09 18:37:00,22.1,17.7,22.07,West,276,0.0,21.0,83,0.00,,,0.00,Wunderground v.1.15,2013-02-10 01:37:00,
2013-02-09 18:43:00,21.7,17.3,22.06,West,276,0.0,21.0,83,0.00,,,0.00,Wunderground v.1.15,2013-02-10 01:43:00,
2013-02-09 18:45:00,21.6,17.5,22.06,West,276,0.0,21.0,84,0.00,,,0.00,Wunderground v.1.15,2013-02-10 01:45:00,
2013-02-09 18:51:00,21.2,17.1,22.06,West,275,0.0,21.0,84,0.00,,,0.00,Wunderground v.1.15,2013-02-10 01:51:00,
2013-02-09 18:57:00,20.9,16.8,22.07,West,276,0.0,21.0,84,0.00,,,0.00,Wunderground v.1.15,2013-02-10 01:57:00,
2013-02-09 18:59:00,20.8,16.7,22.07,West,276,0.0,21.0,84,0.00,,,0.00,Wunderground v.1.15,2013-02-10 01:59:00,
2013-02-09 19:03:00,20.5,16.7,22.07,West,276,0.0,21.0,85,0.00,,,0.00,Wunderground v.1.15,2013-02-10 02:03:00,
2013-02-09 19:07:00,20.5,16.7,22.07,NW,316,0.0,21.0,85,0.00,,,0.00,Wunderground v.1.15,2013-02-10 02:07:00,
2013-02-09 19:11:00,20.5,16.7,22.07,NNW,339,0.0,21.0,85,0.00,,,0.00,Wunderground v.1.15,2013-02-10 02:11:00,
2013-02-09 19:17:00,20.3,16.5,22.07,NE,56,0.0,21.0,85,0.00,,,0.00,Wunderground v.1.15,2013-02-10 02:17:00,
2013-02-09 19:19:00,20.3,16.8,22.07,North,6,0.0,21.0,86,0.00,,,0.00,Wunderground v.1.15,2013-02-10 02:19:00,
2013-02-09 19:25:00,20.5,17.0,22.07,North,352,0.0,21.0,86,0.00,,,0.00,Wunderground v.1.15,2013-02-10 02:25:00,
2013-02-09 19:27:00,20.5,17.0,22.07,WNW,297,0.0,21.0,86,0.00,,,0.00,Wunderground v.1.15,2013-02-10 02:27:00,
2013-02-09 19:29:00,20.6,17.1,22.07,West,280,0.0,21.0,86,0.00,,,0.00,Wunderground v.1.15,2013-02-10 02:29:00,
2013-02-09 19:33:00,20.7,16.9,22.07,West,280,0.0,21.0,85,0.00,,,0.00,Wunderground v.1.15,2013-02-10 02:33:00,
2013-02-09 19:39:00,20.5,16.4,22.07,West,280,0.0,21.0,84,0.00,,,0.00,Wunderground v.1.15,2013-02-10 02:39:00,
2013-02-09 19:45:00,20.0,16.2,22.07,West,280,0.0,21.0,85,0.00,,,0.00,Wunderground v.1.15,2013-02-10 02:45:00,
2013-02-09 19:47:00,20.0,16.5,22.07,West,280,0.0,21.0,86,0.00,,,0.00,Wunderground v.1.15,2013-02-10 02:47:00,
2013-02-09 19:51:00,19.7,15.9,22.07,West,280,0.0,21.0,85,0.00,,,0.00,Wunderground v.1.15,2013-02-10 02:51:00,
2013-02-09 19:57:00,19.3,15.8,22.07,West,280,0.0,21.0,86,0.00,,,0.00,Wunderground v.1.15,2013-02-10 02:57:00,
2013-02-09 20:03:00,18.9,15.4,22.07,West,273,0.0,21.0,86,0.00,,,0.00,Wunderground v.1.15,2013-02-10 03:03:00,
2013-02-09 20:07:00,18.6,15.1,22.07,West,273,0.0,21.0,86,0.00,,,0.00,Wunderground v.1.15,2013-02-10 03:07:00,
2013-02-09 20:09:00,18.5,15.3,22.07,West,273,0.0,21.0,87,0.00,,,0.00,Wunderground v.1.15,2013-02-10 03:09:00,
2013-02-09 20:11:00,18.4,15.2,22.07,West,273,0.0,21.0,87,0.00,,,0.00,Wunderground v.1.15,2013-02-10 03:11:00,
2013-02-09 20:13:00,18.3,15.1,22.07,West,273,0.0,21.0,87,0.00,,,0.00,Wunderground v.1.15,2013-02-10 03:13:00,
2013-02-09 20:17:00,18.2,15.2,22.07,West,273,0.0,21.0,88,0.00,,,0.00,Wunderground v.1.15,2013-02-10 03:17:00,
2013-02-09 20:23:00,18.0,14.8,22.07,West,266,0.0,21.0,87,0.00,,,0.00,Wunderground v.1.15,2013-02-10 03:23:00,
2013-02-09 20:25:00,17.9,14.7,22.07,West,266,0.0,21.0,87,0.00,,,0.00,Wunderground v.1.15,2013-02-10 03:25:00,
2013-02-09 20:31:00,17.6,14.7,22.07,NNW,347,0.0,21.0,88,0.00,,,0.00,Wunderground v.1.15,2013-02-10 03:31:00,
2013-02-09 20:37:00,17.4,14.5,22.07,NNW,347,0.0,21.0,88,0.00,,,0.00,Wunderground v.1.15,2013-02-10 03:37:00,
2013-02-09 20:39:00,17.3,14.4,22.07,ENE,72,0.0,21.0,88,0.00,,,0.00,Wunderground v.1.15,2013-02-10 03:39:00,
2013-02-09 20:43:00,17.2,14.3,22.07,East,84,0.0,21.0,88,0.00,,,0.00,Wunderground v.1.15,2013-02-10 03:43:00,
2013-02-09 20:47:00,17.2,14.5,22.07,East,91,0.0,21.0,89,0.00,,,0.00,Wunderground v.1.15,2013-02-10 03:47:00,
2013-02-09 20:53:00,16.9,14.0,22.07,East,81,0.0,21.0,88,0.00,,,0.00,Wunderground v.1.15,2013-02-10 03:53:00,
2013-02-09 20:57:00,16.8,14.1,22.07,WSW,253,0.0,21.0,89,0.00,,,0.00,Wunderground v.1.15,2013-02-10 03:57:00,
2013-02-09 21:03:00,16.8,14.1,22.07,North,350,1.0,1.0,89,0.00,,,0.00,Wunderground v.1.15,2013-02-10 04:03:00,
2013-02-09 21:09:00,16.7,14.0,22.07,North,350,1.0,21.0,89,0.00,,,0.00,Wunderground v.1.15,2013-02-10 04:09:00,
2013-02-09 21:15:00,16.4,13.5,22.07,North,350,0.0,21.0,88,0.00,,,0.00,Wunderground v.1.15,2013-02-10 04:15:00,
2013-02-09 21:21:00,16.4,13.7,22.07,North,350,0.0,21.0,89,0.00,,,0.00,Wunderground v.1.15,2013-02-10 04:21:00,
2013-02-09 21:25:00,16.5,13.8,22.07,WSW,256,0.0,21.0,89,0.00,,,0.00,Wunderground v.1.15,2013-02-10 04:25:00,
2013-02-09 21:29:00,16.3,13.6,22.07,WSW,256,0.0,21.0,89,0.00,,,0.00,Wunderground v.1.15,2013-02-10 04:29:00,
2013-02-09 21:31:00,16.4,14.0,22.07,WSW,256,0.0,21.0,90,0.00,,,0.00,Wunderground v.1.15,2013-02-10 04:31:00,
2013-02-09 21:33:00,16.4,14.0,22.07,NE,44,0.0,21.0,90,0.00,,,0.00,Wunderground v.1.15,2013-02-10 04:33:00,
2013-02-09 21:35:00,16.6,14.2,22.07,West,277,0.0,21.0,90,0.00,,,0.00,Wunderground v.1.15,2013-02-10 04:35:00,
2013-02-09 21:39:00,16.8,14.6,22.07,WSW,247,1.0,21.0,91,0.00,,,0.00,Wunderground v.1.15,2013-02-10 04:39:00,
2013-02-09 21:41:00,16.9,14.5,22.07,SE,136,1.0,21.0,90,0.00,,,0.00,Wunderground v.1.15,2013-02-10 04:41:00,
2013-02-09 21:43:00,17.0,14.6,22.07,SE,137,1.0,1.0,90,0.00,,,0.00,Wunderground v.1.15,2013-02-10 04:43:00,
2013-02-09 21:45:00,17.0,14.6,22.07,NE,47,1.0,2.0,90,0.00,,,0.00,Wunderground v.1.15,2013-02-10 04:45:00,
2013-02-09 21:51:00,17.0,14.3,22.07,West,265,1.0,21.0,89,0.00,,,0.00,Wunderground v.1.15,2013-02-10 04:51:00,
2013-02-09 21:55:00,17.1,14.4,22.07,East,79,1.0,21.0,89,0.00,,,0.00,Wunderground v.1.15,2013-02-10 04:55:00,
2013-02-09 21:59:00,17.0,14.1,22.07,East,79,0.0,21.0,88,0.00,,,0.00,Wunderground v.1.15,2013-02-10 04:59:00,
2013-02-09 22:01:00,17.1,13.9,22.07,East,79,1.0,21.0,87,0.00,,,0.00,Wunderground v.1.15,2013-02-10 05:01:00,
2013-02-09 22:03:00,17.1,13.9,22.07,NE,41,0.0,21.0,87,0.00,,,0.00,Wunderground v.1.15,2013-02-10 05:03:00,
2013-02-09 22:05:00,17.2,13.7,22.07,South,172,1.0,21.0,86,0.00,,,0.00,Wunderground v.1.15,2013-02-10 05:05:00,
2013-02-09 22:07:00,17.3,13.8,22.07,NE,53,1.0,21.0,86,0.00,,,0.00,Wunderground v.1.15,2013-02-10 05:07:00,
2013-02-09 22:09:00,17.7,13.4,22.07,NE,41,1.0,21.0,83,0.00,,,0.00,Wunderground v.1.15,2013-02-10 05:09:00,
2013-02-09 22:11:00,18.0,12.9,22.07,East,99,1.0,21.0,80,0.00,,,0.00,Wunderground v.1.15,2013-02-10 05:11:00,
2013-02-09 22:17:00,18.3,11.7,22.07,SE,133,1.0,21.0,75,0.00,,,0.00,Wunderground v.1.15,2013-02-10 05:17:00,
2013-02-09 22:19:00,18.5,11.6,22.07,ESE,110,1.0,21.0,74,0.00,,,0.00,Wunderground v.1.15,2013-02-10 05:19:00,
2013-02-09 22:25:00,18.9,10.4,22.07,SW,222,1.0,3.0,69,0.00,,,0.00,Wunderground v.1.15,2013-02-10 05:25:00,
2013-02-09 22:31:00,19.8,9.6,22.07,WSW,238,2.0,21.0,64,0.00,,,0.00,Wunderground v.1.15,2013-02-10 05:31:00,
2013-02-09 22:35:00,20.4,9.1,22.07,SSW,202,3.0,21.0,61,0.00,,,0.00,Wunderground v.1.15,2013-02-10 05:35:00,
2013-02-09 22:37:00,20.6,8.9,22.07,SW,233,3.0,21.0,60,0.00,,,0.00,Wunderground v.1.15,2013-02-10 05:37:00,
2013-02-09 22:43:00,21.0,8.1,22.07,WSW,247,3.0,3.0,57,0.00,,,0.00,Wunderground v.1.15,2013-02-10 05:43:00,
2013-02-09 22:47:00,21.2,7.9,22.07,WSW,240,3.0,21.0,56,0.00,,,0.00,Wunderground v.1.15,2013-02-10 05:47:00,
2013-02-09 22:49:00,21.3,8.0,22.07,WSW,244,3.0,21.0,56,0.00,,,0.00,Wunderground v.1.15,2013-02-10 05:49:00,
2013-02-09 22:53:00,21.4,7.3,22.07,SW,230,3.0,21.0,54,0.00,,,0.00,Wunderground v.1.15,2013-02-10 05:53:00,
2013-02-09 22:57:00,21.5,7.4,22.07,West,260,4.0,21.0,54,0.00,,,0.00,Wunderground v.1.15,2013-02-10 05:57:00,
2013-02-09 22:59:00,21.5,7.4,22.07,WSW,256,4.0,21.0,54,0.00,,,0.00,Wunderground v.1.15,2013-02-10 05:59:00,
2013-02-09 23:01:00,21.6,7.1,22.08,South,190,4.0,21.0,53,0.00,,,0.00,Wunderground v.1.15,2013-02-10 06:01:00,
2013-02-09 23:05:00,21.6,7.1,22.07,WSW,246,3.0,21.0,53,0.00,,,0.00,Wunderground v.1.15,2013-02-10 06:05:00,
2013-02-09 23:07:00,21.6,7.1,22.07,SW,215,4.0,21.0,53,0.00,,,0.00,Wunderground v.1.15,2013-02-10 06:07:00,
2013-02-09 23:09:00,21.6,7.1,22.07,SSW,197,4.0,21.0,53,0.00,,,0.00,Wunderground v.1.15,2013-02-10 06:09:00,
2013-02-09 23:11:00,21.6,7.1,22.07,WNW,298,3.0,21.0,53,0.00,,,0.00,Wunderground v.1.15,2013-02-10 06:11:00,
2013-02-09 23:15:00,21.6,7.1,22.08,SW,231,4.0,21.0,53,0.00,,,0.00,Wunderground v.1.15,2013-02-10 06:15:00,
2013-02-09 23:17:00,21.6,6.7,22.08,SSE,150,3.0,21.0,52,0.00,,,0.00,Wunderground v.1.15,2013-02-10 06:17:00,
2013-02-09 23:19:00,21.6,6.7,22.08,WNW,297,3.0,21.0,52,0.00,,,0.00,Wunderground v.1.15,2013-02-10 06:19:00,
2013-02-09 23:23:00,21.6,6.2,22.08,SSW,204,3.0,3.0,51,0.00,,,0.00,Wunderground v.1.15,2013-02-10 06:23:00,
2013-02-09 23:25:00,21.6,6.7,22.08,SSW,211,3.0,21.0,52,0.00,,,0.00,Wunderground v.1.15,2013-02-10 06:25:00,
2013-02-09 23:29:00,21.7,6.3,22.08,SW,219,4.0,21.0,51,0.00,,,0.00,Wunderground v.1.15,2013-02-10 06:29:00,
2013-02-09 23:31:00,21.7,6.8,22.08,NNW,333,5.0,21.0,52,0.00,,,0.00,Wunderground v.1.15,2013-02-10 06:31:00,
2013-02-09 23:33:00,21.7,6.8,22.08,SSW,212,5.0,21.0,52,0.00,,,0.00,Wunderground v.1.15,2013-02-10 06:33:00,
2013-02-09 23:37:00,21.6,6.7,22.08,SW,221,4.0,21.0,52,0.00,,,0.00,Wunderground v.1.15,2013-02-10 06:37:00,
2013-02-09 23:39:00,21.6,7.1,22.08,SSW,205,4.0,21.0,53,0.00,,,0.00,Wunderground v.1.15,2013-02-10 06:39:00,
2013-02-09 23:45:00,21.5,6.6,22.09,North,4,3.0,21.0,52,0.00,,,0.00,Wunderground v.1.15,2013-02-10 06:45:00,
2013-02-09 23:47:00,21.4,6.5,22.08,NW,321,2.0,21.0,52,0.00,,,0.00,Wunderground v.1.15,2013-02-10 06:47:00,
2013-02-09 23:49:00,21.4,6.5,22.09,WSW,248,2.0,21.0,52,0.00,,,0.00,Wunderground v.1.15,2013-02-10 06:49:00,
2013-02-09 23:51:00,21.3,6.4,22.09,NNW,327,2.0,21.0,52,0.00,,,0.00,Wunderground v.1.15,2013-02-10 06:51:00,
2013-02-09 23:53:00,21.3,6.4,22.09,WSW,248,2.0,21.0,52,0.00,,,0.00,Wunderground v.1.15,2013-02-10 06:53:00,
2013-02-09 23:57:00,21.2,6.3,22.09,West,274,2.0,21.0,52,0.00,,,0.00,Wunderground v.1.15,2013-02-10 06:57:00,
2013-02-09 23:59:00,21.1,6.2,22.09,WNW,284,2.0,21.0,52,0.00,,,0.00,Wunderground v.1.15,2013-02-10 06:59:00,